createdAt,value
2023-04-02T00:02:26.543Z,1.73
2023-04-02T00:05:19.541Z,1.48
2023-04-02T00:07:50.694Z,1.58
2023-04-02T00:10:36.704Z,2.72
2023-04-02T00:13:06.577Z,1.80
2023-04-02T00:15:33.877Z,5.88
2023-04-02T00:18:00.713Z,1.70
2023-04-02T00:20:27.946Z,1.85
2023-04-02T00:22:55.665Z,2.83
2023-04-02T00:25:22.469Z,2.40
2023-04-02T00:27:48.779Z,2.50
2023-04-02T00:30:15.624Z,1.67
2023-04-02T00:32:42.188Z,1.60
2023-04-02T00:35:12.942Z,1.88
2023-04-02T00:37:42.126Z,1.63
2023-04-02T00:40:19.448Z,1.92
2023-04-02T00:42:46.474Z,1.73
2023-04-02T00:45:22.909Z,1.70
2023-04-02T00:50:15.611Z,1.05
2023-04-02T00:52:43.331Z,1.83
2023-04-02T00:55:15.659Z,1.23
2023-04-02T00:57:42.763Z,1.88
2023-04-02T01:00:19.881Z,1.58
2023-04-02T01:03:06.216Z,1.17
2023-04-02T01:05:35.506Z,1.85
2023-04-02T01:08:11.855Z,1.20
2023-04-02T01:10:50.259Z,1.20
2023-04-02T01:13:22.932Z,2.15
2023-04-02T01:16:04.414Z,1.25
2023-04-02T01:18:50.336Z,1.23
2023-04-02T01:21:32.442Z,1.20
2023-04-02T01:24:06.210Z,1.80
2023-04-02T01:26:36.774Z,1.30
2023-04-02T01:29:11.885Z,1.38
2023-04-02T01:31:38.738Z,1.65
2023-04-02T01:34:07.241Z,0.88
2023-04-02T01:36:42.410Z,0.98
2023-04-02T01:39:08.778Z,2.38
2023-04-02T01:41:43.674Z,1.00
2023-04-02T01:44:12.191Z,2.55
2023-04-02T01:46:41.194Z,1.65
2023-04-02T01:49:15.367Z,1.35
2023-04-02T01:51:45.912Z,1.05
2023-04-02T01:54:14.062Z,1.13
2023-04-02T01:56:41.176Z,1.70
2023-04-02T01:59:07.470Z,1.38
2023-04-02T02:01:42.097Z,1.30
2023-04-02T02:04:11.665Z,2.20
2023-04-02T02:06:38.183Z,1.65
2023-04-02T02:09:05.728Z,1.30
2023-04-02T02:11:32.811Z,1.90
2023-04-02T02:14:06.468Z,1.38
2023-04-02T02:16:41.532Z,1.50
2023-04-02T02:19:13.269Z,1.40
2023-04-02T02:21:42.166Z,1.00
2023-04-02T02:24:37.579Z,0.80
2023-04-02T02:27:11.330Z,0.82
2023-04-02T02:29:38.324Z,1.15
2023-04-02T02:32:06.326Z,1.17
2023-04-02T02:34:45.906Z,1.23
2023-04-02T02:37:19.044Z,0.93
2023-04-02T02:39:47.995Z,1.33
2023-04-02T02:42:18.027Z,1.60
2023-04-02T02:44:46.516Z,1.30
2023-04-02T02:47:22.185Z,1.55
2023-04-02T02:49:57.373Z,1.63
2023-04-02T02:52:28.836Z,1.02
2023-04-02T02:54:57.930Z,1.02
2023-04-02T02:57:29.652Z,1.13
2023-04-02T02:59:57.169Z,1.65
2023-04-02T03:02:24.496Z,0.85
2023-04-02T03:04:53.102Z,2.97
2023-04-02T03:07:21.864Z,1.20
2023-04-02T03:10:23.519Z,1.67
2023-04-02T03:12:58.523Z,0.68
2023-04-02T03:15:30.826Z,1.73
2023-04-02T03:18:06.296Z,1.13
2023-04-02T03:21:07.979Z,1.17
2023-04-02T03:23:38.994Z,1.48
2023-04-02T03:26:08.352Z,1.92
2023-04-02T03:28:39.005Z,0.98
2023-04-02T03:31:19.730Z,1.50
2023-04-02T03:33:50.145Z,1.27
2023-04-02T03:36:18.673Z,1.38
2023-04-02T03:38:46.988Z,1.77
2023-04-02T03:41:24.638Z,1.05
2023-04-02T03:43:56.094Z,2.15
2023-04-02T03:46:24.854Z,1.77
2023-04-02T03:48:52.834Z,1.15
2023-04-02T03:51:34.163Z,1.90
2023-04-02T03:54:01.686Z,1.20
2023-04-02T03:56:29.305Z,1.83
2023-04-02T03:59:01.673Z,1.48
2023-04-02T04:01:34.429Z,2.13
2023-04-02T04:04:20.075Z,1.67
2023-04-02T04:06:47.960Z,1.55
2023-04-02T04:09:23.392Z,1.95
2023-04-02T04:11:52.183Z,1.63
2023-04-02T04:14:28.458Z,1.65
2023-04-02T04:19:24.813Z,2.20
2023-04-02T04:21:53.902Z,2.38
2023-04-02T04:24:22.866Z,2.05
2023-04-02T04:26:57.965Z,1.95
2023-04-02T04:29:27.297Z,1.90
2023-04-02T04:31:55.666Z,2.33
2023-04-02T04:34:30.023Z,1.50
2023-04-02T04:37:01.818Z,1.52
2023-04-02T04:39:39.263Z,2.15
2023-04-02T04:42:06.701Z,0.90
2023-04-02T04:44:38.788Z,1.85
2023-04-02T04:47:09.920Z,2.40
2023-04-02T04:49:39.828Z,2.17
2023-04-02T04:52:14.491Z,1.50
2023-04-02T04:54:40.808Z,2.15
2023-04-02T04:57:18.177Z,2.25
2023-04-02T04:59:48.865Z,2.28
2023-04-02T05:02:19.647Z,1.85
2023-04-02T05:04:50.480Z,1.52
2023-04-02T05:07:22.691Z,1.67
2023-04-02T05:10:12.270Z,4.30
2023-04-02T05:12:41.636Z,2.60
2023-04-02T05:15:11.299Z,1.70
2023-04-02T05:18:11.218Z,2.00
2023-04-02T05:20:57.833Z,2.40
2023-04-02T05:23:27.426Z,2.20
2023-04-02T05:25:58.787Z,1.63
2023-04-02T05:28:45.409Z,2.10
2023-04-02T05:31:20.865Z,2.13
2023-04-02T05:33:47.914Z,2.53
2023-04-02T05:36:22.403Z,2.17
2023-04-02T05:38:49.860Z,3.00
2023-04-02T05:41:19.232Z,2.65
2023-04-02T05:43:47.247Z,2.97
2023-04-02T05:46:16.414Z,2.45
2023-04-02T05:48:46.320Z,2.55
2023-04-02T05:51:17.203Z,3.83
2023-04-02T05:53:49.433Z,3.40
2023-04-02T05:56:20.890Z,2.90
2023-04-02T05:58:50.628Z,3.60
2023-04-02T06:01:26.216Z,4.50
2023-04-02T06:03:58.973Z,4.25
2023-04-02T06:06:54.881Z,2.88
2023-04-02T06:09:25.126Z,2.42
2023-04-02T06:11:56.706Z,4.00
2023-04-02T06:14:23.181Z,4.05
2023-04-02T06:16:49.735Z,2.78
2023-04-02T06:19:20.624Z,2.85
2023-04-02T06:21:49.825Z,2.50
2023-04-02T06:24:19.037Z,3.55
2023-04-02T06:26:50.443Z,4.53
2023-04-02T06:29:27.513Z,3.13
2023-04-02T06:31:58.378Z,3.83
2023-04-02T06:34:25.873Z,2.60
2023-04-02T06:36:56.334Z,4.90
2023-04-02T06:39:23.487Z,4.10
2023-04-02T06:42:16.129Z,2.80
2023-04-02T06:44:42.641Z,4.13
2023-04-02T06:47:11.985Z,4.45
2023-04-02T06:49:40.129Z,4.15
2023-04-02T06:52:11.990Z,4.10
2023-04-02T06:54:38.518Z,4.15
2023-04-02T06:57:06.434Z,4.18
2023-04-02T06:59:32.860Z,5.15
2023-04-02T07:02:03.527Z,6.03
2023-04-02T07:04:29.965Z,4.10
2023-04-02T07:06:59.501Z,6.22
2023-04-02T07:09:26.718Z,4.80
2023-04-02T07:11:53.070Z,5.85
2023-04-02T07:14:19.631Z,4.65
2023-04-02T07:16:46.395Z,4.60
2023-04-02T07:19:23.105Z,4.20
2023-04-02T07:21:49.862Z,6.05
2023-04-02T07:24:16.309Z,4.68
2023-04-02T07:26:42.994Z,5.60
2023-04-02T07:29:13.917Z,5.30
2023-04-02T07:31:41.023Z,4.63
2023-04-02T07:34:07.691Z,4.70
2023-04-02T07:36:34.327Z,4.75
2023-04-02T07:39:01.461Z,4.68
2023-04-02T07:41:28.864Z,5.15
2023-04-02T07:43:55.377Z,3.85
2023-04-02T07:46:21.734Z,4.55
2023-04-02T07:48:48.308Z,7.72
2023-04-02T07:51:18.988Z,4.20
2023-04-02T07:53:45.410Z,4.43
2023-04-02T07:56:13.893Z,5.40
2023-04-02T07:58:40.377Z,5.18
2023-04-02T08:01:14.124Z,5.68
2023-04-02T08:03:41.444Z,5.53
2023-04-02T08:06:07.901Z,6.35
2023-04-02T08:08:34.899Z,4.40
2023-04-02T08:11:01.404Z,5.07
2023-04-02T08:13:27.722Z,8.57
2023-04-02T08:15:54.088Z,4.40
2023-04-02T08:18:22.335Z,4.30
2023-04-02T08:20:48.652Z,4.55
2023-04-02T08:23:17.133Z,5.18
2023-04-02T08:25:44.315Z,4.63
2023-04-02T08:28:10.777Z,4.75
2023-04-02T08:30:37.243Z,4.95
2023-04-02T08:33:03.718Z,4.43
2023-04-02T08:35:30.510Z,4.78
2023-04-02T08:37:56.829Z,5.55
2023-04-02T08:40:27.329Z,5.85
2023-04-02T08:43:12.335Z,4.93
2023-04-02T08:45:44.493Z,4.93
2023-04-02T08:48:11.137Z,4.95
2023-04-02T08:50:38.959Z,4.70
2023-04-02T08:53:07.581Z,4.55
2023-04-02T08:55:47.865Z,4.53
2023-04-02T08:58:14.155Z,5.93
2023-04-02T09:00:41.868Z,6.90
2023-04-02T09:03:08.465Z,4.72
2023-04-02T09:05:37.771Z,4.68
2023-04-02T09:08:06.264Z,4.80
2023-04-02T09:10:39.617Z,4.97
2023-04-02T09:13:13.538Z,4.07
2023-04-02T09:15:39.795Z,3.42
2023-04-02T09:18:11.859Z,3.67
2023-04-02T09:20:38.442Z,2.97
2023-04-02T09:23:04.990Z,5.53
2023-04-02T09:25:32.122Z,3.33
2023-04-02T09:28:01.361Z,4.60
2023-04-02T09:30:42.724Z,4.40
2023-04-02T09:33:09.346Z,6.00
2023-04-02T09:35:37.023Z,4.30
2023-04-02T09:38:09.672Z,4.38
2023-04-02T09:40:47.865Z,4.13
2023-04-02T09:43:16.016Z,6.55
2023-04-02T09:45:43.398Z,3.30
2023-04-02T09:48:32.289Z,2.97
2023-04-02T09:51:20.208Z,3.00
2023-04-02T09:53:46.657Z,3.67
2023-04-02T09:56:21.673Z,5.22
2023-04-02T09:59:02.586Z,3.20
2023-04-02T10:01:30.608Z,3.10
2023-04-02T10:03:59.627Z,4.50
2023-04-02T10:06:28.346Z,4.25
2023-04-02T10:08:55.394Z,3.83
2023-04-02T10:11:36.508Z,4.05
2023-04-02T10:14:16.184Z,3.65
2023-04-02T10:16:53.753Z,3.22
2023-04-02T10:19:23.140Z,2.80
2023-04-02T10:21:50.114Z,4.60
2023-04-02T10:24:16.986Z,4.20
2023-04-02T10:26:49.751Z,3.30
2023-04-02T10:29:25.082Z,6.88
2023-04-02T10:32:00.911Z,4.27
2023-04-02T10:34:33.580Z,2.50
2023-04-02T10:37:07.771Z,5.22
2023-04-02T10:39:37.858Z,3.42
2023-04-02T10:42:22.725Z,4.28
2023-04-02T10:45:15.656Z,6.10
2023-04-02T10:47:41.998Z,5.72
2023-04-02T10:50:29.446Z,6.47
2023-04-02T10:53:16.096Z,5.90
2023-04-02T10:55:44.278Z,5.00
2023-04-02T10:58:23.191Z,9.23
2023-04-02T11:00:50.366Z,4.03
2023-04-02T11:03:29.703Z,6.53
2023-04-02T11:05:58.324Z,7.68
2023-04-02T11:08:45.579Z,4.15
2023-04-02T11:11:11.905Z,3.63
2023-04-02T11:13:44.269Z,5.50
2023-04-02T11:16:12.242Z,7.40
2023-04-02T11:18:38.855Z,5.32
2023-04-02T11:21:06.936Z,5.53
2023-04-02T11:23:35.072Z,4.10
2023-04-02T11:26:20.878Z,4.18
2023-04-02T11:28:47.344Z,7.40
2023-04-02T11:31:20.505Z,4.40
2023-04-02T11:33:49.567Z,4.25
2023-04-02T11:36:35.304Z,4.85
2023-04-02T11:39:14.693Z,4.32
2023-04-02T11:42:05.996Z,4.93
2023-04-02T11:44:32.338Z,6.18
2023-04-02T11:47:18.946Z,4.25
2023-04-02T11:52:22.848Z,4.55
2023-04-02T11:54:58.274Z,4.85
2023-04-02T11:57:33.614Z,4.90
2023-04-02T12:00:12.899Z,5.20
2023-04-02T12:02:59.447Z,4.10
2023-04-02T12:08:22.544Z,5.47
2023-04-02T12:10:48.973Z,3.53
2023-04-02T12:13:41.687Z,3.40
2023-04-02T12:16:11.440Z,2.90
2023-04-02T12:18:48.288Z,4.57
2023-04-02T12:21:16.046Z,4.18
2023-04-02T12:23:45.306Z,3.05
2023-04-02T12:26:43.123Z,4.03
2023-04-02T12:29:29.924Z,5.70
2023-04-02T12:34:24.281Z,2.78
2023-04-02T12:37:38.227Z,2.97
2023-04-02T12:40:18.035Z,4.00
2023-04-02T12:42:44.823Z,5.07
2023-04-02T12:45:23.874Z,6.30
2023-04-02T12:47:50.658Z,2.50
2023-04-02T12:50:21.172Z,2.13
2023-04-02T12:52:56.786Z,3.90
2023-04-02T12:55:25.595Z,3.95
2023-04-02T12:58:03.437Z,3.13
2023-04-02T13:00:36.630Z,3.65
2023-04-02T13:03:06.476Z,4.65
2023-04-02T13:05:32.799Z,3.13
2023-04-02T13:07:59.473Z,4.68
2023-04-02T13:10:27.372Z,2.88
2023-04-02T13:13:02.393Z,2.75
2023-04-02T13:15:33.579Z,3.40
2023-04-02T13:18:18.421Z,3.55
2023-04-02T13:20:56.303Z,2.05
2023-04-02T13:23:23.988Z,2.40
2023-04-02T13:25:51.861Z,2.80
2023-04-02T13:28:21.929Z,3.30
2023-04-02T13:30:49.033Z,3.38
2023-04-02T13:33:16.154Z,2.63
2023-04-02T13:35:42.935Z,2.67
2023-04-02T13:38:09.508Z,2.28
2023-04-02T13:40:37.413Z,3.03
2023-04-02T13:43:05.118Z,2.88
2023-04-02T13:45:38.418Z,3.55
2023-04-02T13:48:12.228Z,4.45
2023-04-02T13:50:38.875Z,2.78
2023-04-02T13:53:10.218Z,2.35
2023-04-02T13:55:52.312Z,1.90
2023-04-02T13:58:19.731Z,2.55
2023-04-02T14:00:46.468Z,2.83
2023-04-02T14:03:23.394Z,2.33
2023-04-02T14:05:53.755Z,2.63
2023-04-02T14:08:41.126Z,1.92
2023-04-02T14:11:30.550Z,5.53
2023-04-02T14:14:25.971Z,2.63
2023-04-02T14:17:07.649Z,3.00
2023-04-02T14:19:37.471Z,1.70
2023-04-02T14:22:25.129Z,3.80
2023-04-02T14:25:26.923Z,2.17
2023-04-02T14:28:00.936Z,2.60
2023-04-02T14:30:43.393Z,2.63
2023-04-02T14:33:16.618Z,3.75
2023-04-02T14:35:50.850Z,2.72
2023-04-02T14:38:24.322Z,3.15
2023-04-02T14:41:09.146Z,3.95
2023-04-02T14:43:38.552Z,2.42
2023-04-02T14:46:06.180Z,4.28
2023-04-02T14:48:41.858Z,2.80
2023-04-02T14:51:23.901Z,3.05
2023-04-02T14:54:02.960Z,3.17
2023-04-02T14:56:31.439Z,3.15
2023-04-02T14:59:05.512Z,3.25
2023-04-02T15:01:34.864Z,4.03
2023-04-02T15:04:02.914Z,3.90
2023-04-02T15:06:41.680Z,3.40
2023-04-02T15:09:17.294Z,4.03
2023-04-02T15:11:47.195Z,3.50
2023-04-02T15:14:25.456Z,4.20
2023-04-02T15:16:57.473Z,3.03
2023-04-02T15:19:24.546Z,4.78
2023-04-02T15:21:59.871Z,5.40
2023-04-02T15:24:36.955Z,5.32
2023-04-02T15:27:14.765Z,4.32
2023-04-02T15:29:48.744Z,3.28
2023-04-02T15:32:23.882Z,5.05
2023-04-02T15:34:57.511Z,4.25
2023-04-02T15:37:28.929Z,3.92
2023-04-02T15:40:10.549Z,2.78
2023-04-02T15:42:39.061Z,3.50
2023-04-02T15:45:05.683Z,3.42
2023-04-02T15:47:46.132Z,4.07
2023-04-02T15:50:37.149Z,2.88
2023-04-02T15:53:06.786Z,2.13
2023-04-02T15:55:47.812Z,2.92
2023-04-02T15:58:20.842Z,2.40
2023-04-02T16:01:05.591Z,4.57
2023-04-02T16:04:00.898Z,3.95
2023-04-02T16:07:04.629Z,3.55
2023-04-02T16:09:35.313Z,3.78
2023-04-02T16:12:11.948Z,2.72
2023-04-02T16:14:39.330Z,2.47
2023-04-02T16:17:23.651Z,4.15
2023-04-02T16:19:53.161Z,4.72
2023-04-02T16:22:19.499Z,2.97
2023-04-02T16:24:48.637Z,2.85
2023-04-02T16:27:42.362Z,2.55
2023-04-02T16:30:19.452Z,2.42
2023-04-02T16:32:56.356Z,3.15
2023-04-02T16:38:03.428Z,3.28
2023-04-02T16:40:33.211Z,3.60
2023-04-02T16:43:06.929Z,2.53
2023-04-02T16:45:42.826Z,3.13
2023-04-02T16:48:24.651Z,3.53
2023-04-02T16:50:54.919Z,2.67
2023-04-02T16:53:41.367Z,2.40
2023-04-02T16:56:17.519Z,4.10
2023-04-02T16:59:03.010Z,3.97
2023-04-02T17:01:44.516Z,2.28
2023-04-02T17:04:14.782Z,2.13
2023-04-02T17:06:42.734Z,4.95
2023-04-02T17:09:11.979Z,2.90
2023-04-02T17:11:45.030Z,3.05
2023-04-02T17:14:21.496Z,4.28
2023-04-02T17:16:50.360Z,4.15
2023-04-02T17:19:20.366Z,3.58
2023-04-02T17:21:48.470Z,2.70
2023-04-02T17:24:20.693Z,4.18
2023-04-02T17:26:51.049Z,2.33
2023-04-02T17:29:34.426Z,3.90
2023-04-02T17:32:02.073Z,3.83
2023-04-02T17:34:28.425Z,3.85
2023-04-02T17:36:59.141Z,3.42
2023-04-02T17:39:32.536Z,4.93
2023-04-02T17:42:17.873Z,4.03
2023-04-02T17:44:44.132Z,3.83
2023-04-02T17:47:16.702Z,4.82
2023-04-02T17:49:57.196Z,5.00
2023-04-02T17:52:27.060Z,5.13
2023-04-02T17:54:53.299Z,6.15
2023-04-02T17:57:26.143Z,6.45
2023-04-02T18:00:04.320Z,8.23
2023-04-02T18:02:49.443Z,9.65
2023-04-02T18:05:34.071Z,4.35
2023-04-02T18:08:12.410Z,10.15
2023-04-02T18:10:46.394Z,6.57
2023-04-02T18:13:39.195Z,7.10
2023-04-02T18:16:20.465Z,7.40
2023-04-02T18:18:56.678Z,6.05
2023-04-02T18:21:23.121Z,7.72
2023-04-02T18:24:10.810Z,6.65
2023-04-02T18:26:40.268Z,7.70
2023-04-02T18:29:21.890Z,8.45
2023-04-02T18:32:14.097Z,8.07
2023-04-02T18:34:59.057Z,8.38
2023-04-02T18:37:33.019Z,6.47
2023-04-02T18:40:22.067Z,8.35
2023-04-02T18:42:59.499Z,6.43
2023-04-02T18:45:33.564Z,9.48
2023-04-02T18:48:12.661Z,7.38
2023-04-02T18:50:40.740Z,8.13
2023-04-02T18:53:14.466Z,8.52
2023-04-02T18:55:51.674Z,7.07
2023-04-02T18:58:22.756Z,4.75
2023-04-02T19:00:49.971Z,5.65
2023-04-02T19:03:32.796Z,6.32
2023-04-02T19:06:02.949Z,6.60
2023-04-02T19:08:29.655Z,4.75
2023-04-02T19:11:00.545Z,6.22
2023-04-02T19:13:27.028Z,4.80
2023-04-02T19:16:11.837Z,6.45
2023-04-02T19:18:41.410Z,6.00
2023-04-02T19:21:18.868Z,6.60
2023-04-02T19:23:55.963Z,6.93
2023-04-02T19:26:26.858Z,4.65
2023-04-02T19:29:06.521Z,5.10
2023-04-02T19:31:45.191Z,5.75
2023-04-02T19:34:26.707Z,5.30
2023-04-02T19:37:11.413Z,4.57
2023-04-02T19:39:40.994Z,5.28
2023-04-02T19:42:12.870Z,6.22
2023-04-02T19:44:42.772Z,5.05
2023-04-02T19:47:10.156Z,5.40
2023-04-02T19:49:36.823Z,5.85
2023-04-02T19:52:03.215Z,5.35
2023-04-02T19:54:29.516Z,4.22
2023-04-02T19:56:55.910Z,4.13
2023-04-02T19:59:22.271Z,3.33
2023-04-02T20:01:48.584Z,6.75
2023-04-02T20:04:14.900Z,6.30
2023-04-02T20:06:41.354Z,6.07
2023-04-02T20:09:08.746Z,5.05
2023-04-02T20:11:35.901Z,6.18
2023-04-02T20:14:02.421Z,6.40
2023-04-02T20:16:29.038Z,5.28
2023-04-02T20:18:55.678Z,7.50
2023-04-02T20:21:21.970Z,7.85
2023-04-02T20:23:48.308Z,4.47
2023-04-02T20:26:14.591Z,4.22
2023-04-02T20:28:40.904Z,3.58
2023-04-02T20:31:08.814Z,7.43
2023-04-02T20:33:35.322Z,5.60
2023-04-02T20:36:06.754Z,3.67
2023-04-02T20:38:33.317Z,6.82
2023-04-02T20:41:00.152Z,4.10
2023-04-02T20:43:26.532Z,4.13
2023-04-02T20:45:53.892Z,9.43
2023-04-02T20:48:20.232Z,7.70
2023-04-02T20:50:48.154Z,4.63
2023-04-02T20:53:15.051Z,3.58
2023-04-02T20:55:41.321Z,3.03
2023-04-02T20:58:07.736Z,4.43
2023-04-02T21:00:34.430Z,4.40
2023-04-02T21:03:01.152Z,3.28
2023-04-02T21:05:27.745Z,6.75
2023-04-02T21:07:54.160Z,4.85
2023-04-02T21:10:21.232Z,4.47
2023-04-02T21:12:47.504Z,4.95
2023-04-02T21:15:13.852Z,8.25
2023-04-02T21:17:40.384Z,5.35
2023-04-02T21:20:07.352Z,3.63
2023-04-02T21:22:33.747Z,4.65
2023-04-02T21:25:00.292Z,3.92
2023-04-02T21:27:26.872Z,4.63
2023-04-02T21:29:53.206Z,5.00
2023-04-02T21:32:21.725Z,4.00
2023-04-02T21:34:48.507Z,3.60
2023-04-02T21:37:14.794Z,4.65
2023-04-02T21:39:41.466Z,4.47
2023-04-02T21:42:07.792Z,5.30
2023-04-02T21:44:34.065Z,5.65
2023-04-02T21:47:00.347Z,4.25
2023-04-02T21:49:27.508Z,3.83
2023-04-02T21:51:54.148Z,3.50
2023-04-02T21:54:20.664Z,5.47
2023-04-02T21:56:47.504Z,3.60
2023-04-02T21:59:14.733Z,4.18
2023-04-02T22:01:42.635Z,3.63
2023-04-02T22:04:09.800Z,4.20
2023-04-02T22:06:37.626Z,5.13
2023-04-02T22:09:05.507Z,4.38
2023-04-02T22:11:33.658Z,4.32
2023-04-02T22:14:00.126Z,5.22
2023-04-02T22:16:28.144Z,3.85
2023-04-02T22:18:55.642Z,5.10
2023-04-02T22:21:22.204Z,4.70
2023-04-02T22:23:48.938Z,5.00
2023-04-02T22:26:16.273Z,4.63
2023-04-02T22:28:42.615Z,3.88
2023-04-02T22:31:13.175Z,3.25
2023-04-02T22:33:39.917Z,3.50
2023-04-02T22:36:06.983Z,4.88
2023-04-02T22:38:33.852Z,4.30
2023-04-02T22:41:10.338Z,3.45
2023-04-02T22:46:07.028Z,3.40
2023-04-02T22:48:34.015Z,4.10
2023-04-02T22:51:00.547Z,5.30
2023-04-02T22:53:27.279Z,3.28
2023-04-02T22:55:53.701Z,5.03
2023-04-02T22:58:20.774Z,4.93
2023-04-02T23:00:47.754Z,3.67
2023-04-02T23:03:14.191Z,4.40
2023-04-02T23:05:42.334Z,4.53
2023-04-02T23:08:08.726Z,3.35
2023-04-02T23:10:35.412Z,3.22
2023-04-02T23:13:01.965Z,3.45
2023-04-02T23:15:28.314Z,3.20
2023-04-02T23:17:54.685Z,2.63
2023-04-02T23:20:21.109Z,3.67
2023-04-02T23:22:47.425Z,2.92
2023-04-02T23:25:13.670Z,3.03
2023-04-02T23:27:40.138Z,3.03
2023-04-02T23:30:09.094Z,3.00
2023-04-02T23:32:35.484Z,3.60
2023-04-02T23:35:01.853Z,3.70
2023-04-02T23:37:28.151Z,3.25
2023-04-02T23:39:54.397Z,3.28
2023-04-02T23:42:20.878Z,2.83
2023-04-02T23:44:48.366Z,4.10
2023-04-02T23:47:14.700Z,3.10
2023-04-02T23:49:42.186Z,3.55
2023-04-02T23:52:08.619Z,2.67
2023-04-02T23:54:34.928Z,3.42
2023-04-02T23:57:01.253Z,3.30
2023-04-02T23:59:27.591Z,3.65
